sensor_id;sensor_type;location;lat;lon;timestamp;P1;durP1;ratioP1;P2;durP2;ratioP2
17606;SDS011;8922;52.240;20.980;2022-07-29T00:00:04;7.55;;;3.28;;
17606;SDS011;8922;52.240;20.980;2022-07-29T00:02:32;5.10;;;2.97;;
17606;SDS011;8922;52.240;20.980;2022-07-29T00:04:58;8.43;;;3.70;;
17606;SDS011;8922;52.240;20.980;2022-07-29T00:07:25;5.25;;;2.80;;
17606;SDS011;8922;52.240;20.980;2022-07-29T00:09:52;3.95;;;3.22;;
17606;SDS011;8922;52.240;20.980;2022-07-29T00:12:21;8.20;;;3.15;;
17606;SDS011;8922;52.240;20.980;2022-07-29T00:14:50;4.43;;;3.10;;
17606;SDS011;8922;52.240;20.980;2022-07-29T00:17:16;3.38;;;2.65;;
17606;SDS011;8922;52.240;20.980;2022-07-29T00:19:43;4.25;;;2.70;;
17606;SDS011;8922;52.240;20.980;2022-07-29T00:22:10;4.78;;;3.08;;
17606;SDS011;8922;52.240;20.980;2022-07-29T00:24:37;3.95;;;2.40;;
17606;SDS011;8922;52.240;20.980;2022-07-29T00:27:03;5.50;;;2.65;;
17606;SDS011;8922;52.240;20.980;2022-07-29T00:29:31;6.07;;;2.50;;
17606;SDS011;8922;52.240;20.980;2022-07-29T00:31:58;4.38;;;2.50;;
17606;SDS011;8922;52.240;20.980;2022-07-29T00:34:25;7.15;;;2.75;;
17606;SDS011;8922;52.240;20.980;2022-07-29T00:37:09;5.63;;;2.53;;
17606;SDS011;8922;52.240;20.980;2022-07-29T00:39:36;2.97;;;2.37;;
17606;SDS011;8922;52.240;20.980;2022-07-29T00:42:03;4.40;;;2.42;;
17606;SDS011;8922;52.240;20.980;2022-07-29T00:44:32;6.20;;;2.43;;
17606;SDS011;8922;52.240;20.980;2022-07-29T00:47:02;3.35;;;2.00;;
17606;SDS011;8922;52.240;20.980;2022-07-29T00:49:29;3.55;;;2.10;;
17606;SDS011;8922;52.240;20.980;2022-07-29T00:51:56;4.63;;;2.43;;
17606;SDS011;8922;52.240;20.980;2022-07-29T00:54:23;5.25;;;2.60;;
17606;SDS011;8922;52.240;20.980;2022-07-29T00:56:51;8.10;;;2.57;;
17606;SDS011;8922;52.240;20.980;2022-07-29T00:59:19;3.20;;;2.03;;
17606;SDS011;8922;52.240;20.980;2022-07-29T01:01:47;4.93;;;2.10;;
17606;SDS011;8922;52.240;20.980;2022-07-29T01:04:14;5.65;;;2.63;;
17606;SDS011;8922;52.240;20.980;2022-07-29T01:06:41;4.25;;;2.25;;
17606;SDS011;8922;52.240;20.980;2022-07-29T01:09:08;4.30;;;2.42;;
17606;SDS011;8922;52.240;20.980;2022-07-29T01:11:35;2.93;;;2.43;;
17606;SDS011;8922;52.240;20.980;2022-07-29T01:14:02;5.57;;;2.10;;
17606;SDS011;8922;52.240;20.980;2022-07-29T01:16:32;3.63;;;2.20;;
17606;SDS011;8922;52.240;20.980;2022-07-29T01:19:06;2.83;;;2.40;;
17606;SDS011;8922;52.240;20.980;2022-07-29T01:21:49;4.50;;;2.60;;
17606;SDS011;8922;52.240;20.980;2022-07-29T01:24:30;3.15;;;2.28;;
17606;SDS011;8922;52.240;20.980;2022-07-29T01:27:07;5.33;;;2.63;;
17606;SDS011;8922;52.240;20.980;2022-07-29T01:29:53;5.23;;;2.30;;
17606;SDS011;8922;52.240;20.980;2022-07-29T01:32:24;6.43;;;2.20;;
17606;SDS011;8922;52.240;20.980;2022-07-29T01:34:54;4.37;;;2.43;;
17606;SDS011;8922;52.240;20.980;2022-07-29T01:37:27;2.20;;;1.90;;
17606;SDS011;8922;52.240;20.980;2022-07-29T01:39:58;2.90;;;2.10;;
17606;SDS011;8922;52.240;20.980;2022-07-29T01:42:30;4.37;;;2.10;;
17606;SDS011;8922;52.240;20.980;2022-07-29T01:45:05;3.40;;;1.90;;
17606;SDS011;8922;52.240;20.980;2022-07-29T01:47:37;2.67;;;1.83;;
17606;SDS011;8922;52.240;20.980;2022-07-29T01:50:10;4.73;;;1.83;;
17606;SDS011;8922;52.240;20.980;2022-07-29T01:52:42;2.77;;;1.90;;
17606;SDS011;8922;52.240;20.980;2022-07-29T01:55:13;4.40;;;1.90;;
17606;SDS011;8922;52.240;20.980;2022-07-29T01:57:44;3.33;;;2.20;;
17606;SDS011;8922;52.240;20.980;2022-07-29T02:00:15;2.43;;;1.90;;
17606;SDS011;8922;52.240;20.980;2022-07-29T02:02:43;3.53;;;2.23;;
17606;SDS011;8922;52.240;20.980;2022-07-29T02:05:14;5.27;;;1.83;;
17606;SDS011;8922;52.240;20.980;2022-07-29T02:07:43;7.10;;;2.27;;
17606;SDS011;8922;52.240;20.980;2022-07-29T02:10:12;5.20;;;2.03;;
17606;SDS011;8922;52.240;20.980;2022-07-29T02:12:40;6.83;;;2.23;;
17606;SDS011;8922;52.240;20.980;2022-07-29T02:15:09;6.67;;;2.47;;
17606;SDS011;8922;52.240;20.980;2022-07-29T02:17:39;3.40;;;1.83;;
17606;SDS011;8922;52.240;20.980;2022-07-29T02:20:09;6.80;;;2.43;;
17606;SDS011;8922;52.240;20.980;2022-07-29T02:22:37;7.50;;;2.17;;
17606;SDS011;8922;52.240;20.980;2022-07-29T02:25:05;3.47;;;2.10;;
17606;SDS011;8922;52.240;20.980;2022-07-29T02:27:34;3.53;;;1.70;;
17606;SDS011;8922;52.240;20.980;2022-07-29T02:30:02;1.90;;;1.50;;
17606;SDS011;8922;52.240;20.980;2022-07-29T02:32:31;2.57;;;1.67;;
17606;SDS011;8922;52.240;20.980;2022-07-29T02:35:02;4.47;;;1.90;;
17606;SDS011;8922;52.240;20.980;2022-07-29T02:37:30;3.03;;;1.57;;
17606;SDS011;8922;52.240;20.980;2022-07-29T02:39:58;2.67;;;1.73;;
17606;SDS011;8922;52.240;20.980;2022-07-29T02:42:26;3.80;;;1.63;;
17606;SDS011;8922;52.240;20.980;2022-07-29T02:44:54;3.43;;;1.90;;
17606;SDS011;8922;52.240;20.980;2022-07-29T02:47:22;2.80;;;1.90;;
17606;SDS011;8922;52.240;20.980;2022-07-29T02:49:53;3.43;;;1.90;;
17606;SDS011;8922;52.240;20.980;2022-07-29T02:52:28;2.53;;;1.60;;
17606;SDS011;8922;52.240;20.980;2022-07-29T02:55:00;2.63;;;1.60;;
17606;SDS011;8922;52.240;20.980;2022-07-29T02:57:30;3.13;;;1.53;;
17606;SDS011;8922;52.240;20.980;2022-07-29T03:00:04;3.20;;;1.77;;
17606;SDS011;8922;52.240;20.980;2022-07-29T03:02:34;3.47;;;2.40;;
17606;SDS011;8922;52.240;20.980;2022-07-29T03:05:04;2.50;;;1.73;;
17606;SDS011;8922;52.240;20.980;2022-07-29T03:07:35;3.00;;;1.50;;
17606;SDS011;8922;52.240;20.980;2022-07-29T03:10:03;1.70;;;1.60;;
17606;SDS011;8922;52.240;20.980;2022-07-29T03:12:32;2.43;;;1.57;;
17606;SDS011;8922;52.240;20.980;2022-07-29T03:14:59;2.30;;;1.73;;
17606;SDS011;8922;52.240;20.980;2022-07-29T03:17:27;2.13;;;1.93;;
17606;SDS011;8922;52.240;20.980;2022-07-29T03:19:56;3.80;;;2.87;;
17606;SDS011;8922;52.240;20.980;2022-07-29T03:22:24;2.20;;;1.97;;
17606;SDS011;8922;52.240;20.980;2022-07-29T03:24:52;2.77;;;1.87;;
17606;SDS011;8922;52.240;20.980;2022-07-29T03:27:19;2.13;;;1.60;;
17606;SDS011;8922;52.240;20.980;2022-07-29T03:29:46;2.90;;;1.60;;
17606;SDS011;8922;52.240;20.980;2022-07-29T03:32:13;2.07;;;1.70;;
17606;SDS011;8922;52.240;20.980;2022-07-29T03:34:40;2.63;;;1.73;;
17606;SDS011;8922;52.240;20.980;2022-07-29T03:37:07;2.70;;;1.70;;
17606;SDS011;8922;52.240;20.980;2022-07-29T03:39:35;6.30;;;1.50;;
17606;SDS011;8922;52.240;20.980;2022-07-29T03:42:07;2.77;;;1.37;;
17606;SDS011;8922;52.240;20.980;2022-07-29T03:44:37;4.97;;;1.40;;
17606;SDS011;8922;52.240;20.980;2022-07-29T03:47:07;1.73;;;1.30;;
17606;SDS011;8922;52.240;20.980;2022-07-29T03:49:37;1.70;;;1.23;;
17606;SDS011;8922;52.240;20.980;2022-07-29T03:52:05;3.30;;;1.90;;
17606;SDS011;8922;52.240;20.980;2022-07-29T03:54:32;3.83;;;1.73;;
17606;SDS011;8922;52.240;20.980;2022-07-29T03:57:00;3.83;;;1.80;;
17606;SDS011;8922;52.240;20.980;2022-07-29T03:59:29;4.53;;;1.60;;
17606;SDS011;8922;52.240;20.980;2022-07-29T04:01:58;2.67;;;1.50;;
17606;SDS011;8922;52.240;20.980;2022-07-29T04:04:26;2.63;;;1.67;;
17606;SDS011;8922;52.240;20.980;2022-07-29T04:06:53;2.23;;;1.50;;
17606;SDS011;8922;52.240;20.980;2022-07-29T04:09:20;2.40;;;1.50;;
17606;SDS011;8922;52.240;20.980;2022-07-29T04:11:47;4.60;;;1.97;;
17606;SDS011;8922;52.240;20.980;2022-07-29T04:14:13;2.70;;;1.57;;
17606;SDS011;8922;52.240;20.980;2022-07-29T04:16:42;2.80;;;1.70;;
17606;SDS011;8922;52.240;20.980;2022-07-29T04:19:08;4.07;;;1.33;;
17606;SDS011;8922;52.240;20.980;2022-07-29T04:21:36;3.50;;;1.70;;
17606;SDS011;8922;52.240;20.980;2022-07-29T04:24:03;1.53;;;1.43;;
17606;SDS011;8922;52.240;20.980;2022-07-29T04:26:31;2.93;;;1.67;;
17606;SDS011;8922;52.240;20.980;2022-07-29T04:28:57;3.07;;;1.87;;
17606;SDS011;8922;52.240;20.980;2022-07-29T04:31:24;2.83;;;1.80;;
17606;SDS011;8922;52.240;20.980;2022-07-29T04:33:52;8.27;;;1.83;;
17606;SDS011;8922;52.240;20.980;2022-07-29T04:36:19;3.57;;;1.90;;
17606;SDS011;8922;52.240;20.980;2022-07-29T04:38:46;8.43;;;1.80;;
17606;SDS011;8922;52.240;20.980;2022-07-29T04:41:12;3.07;;;1.40;;
17606;SDS011;8922;52.240;20.980;2022-07-29T04:43:39;2.63;;;1.63;;
17606;SDS011;8922;52.240;20.980;2022-07-29T04:46:06;1.50;;;1.40;;
17606;SDS011;8922;52.240;20.980;2022-07-29T04:48:33;2.87;;;1.30;;
17606;SDS011;8922;52.240;20.980;2022-07-29T04:51:01;1.57;;;1.47;;
17606;SDS011;8922;52.240;20.980;2022-07-29T04:53:28;1.70;;;1.50;;
17606;SDS011;8922;52.240;20.980;2022-07-29T04:55:54;3.37;;;1.70;;
17606;SDS011;8922;52.240;20.980;2022-07-29T04:58:21;4.33;;;1.50;;
17606;SDS011;8922;52.240;20.980;2022-07-29T05:00:49;2.87;;;1.17;;
17606;SDS011;8922;52.240;20.980;2022-07-29T05:03:16;2.77;;;1.33;;
17606;SDS011;8922;52.240;20.980;2022-07-29T05:05:42;1.17;;;1.00;;
17606;SDS011;8922;52.240;20.980;2022-07-29T05:08:11;1.33;;;1.10;;
17606;SDS011;8922;52.240;20.980;2022-07-29T05:10:37;4.13;;;1.50;;
17606;SDS011;8922;52.240;20.980;2022-07-29T05:13:04;5.93;;;1.50;;
17606;SDS011;8922;52.240;20.980;2022-07-29T05:15:31;6.03;;;1.50;;
17606;SDS011;8922;52.240;20.980;2022-07-29T05:17:58;2.55;;;1.15;;
17606;SDS011;8922;52.240;20.980;2022-07-29T05:20:25;3.43;;;1.20;;
17606;SDS011;8922;52.240;20.980;2022-07-29T05:22:54;7.80;;;1.87;;
17606;SDS011;8922;52.240;20.980;2022-07-29T05:25:22;3.73;;;1.30;;
17606;SDS011;8922;52.240;20.980;2022-07-29T05:27:49;1.80;;;1.13;;
17606;SDS011;8922;52.240;20.980;2022-07-29T05:30:16;2.80;;;1.47;;
17606;SDS011;8922;52.240;20.980;2022-07-29T05:32:42;1.27;;;1.10;;
17606;SDS011;8922;52.240;20.980;2022-07-29T05:35:09;2.40;;;1.13;;
17606;SDS011;8922;52.240;20.980;2022-07-29T05:37:37;5.30;;;1.33;;
17606;SDS011;8922;52.240;20.980;2022-07-29T05:40:04;1.85;;;1.13;;
17606;SDS011;8922;52.240;20.980;2022-07-29T05:42:33;3.93;;;1.20;;
17606;SDS011;8922;52.240;20.980;2022-07-29T05:45:01;3.97;;;1.00;;
17606;SDS011;8922;52.240;20.980;2022-07-29T05:47:29;2.85;;;1.25;;
17606;SDS011;8922;52.240;20.980;2022-07-29T05:49:55;4.28;;;1.10;;
17606;SDS011;8922;52.240;20.980;2022-07-29T05:52:22;3.35;;;1.10;;
17606;SDS011;8922;52.240;20.980;2022-07-29T05:54:49;2.80;;;1.23;;
17606;SDS011;8922;52.240;20.980;2022-07-29T05:57:16;3.55;;;1.10;;
17606;SDS011;8922;52.240;20.980;2022-07-29T05:59:45;3.00;;;1.13;;
17606;SDS011;8922;52.240;20.980;2022-07-29T06:02:12;1.42;;;1.10;;
17606;SDS011;8922;52.240;20.980;2022-07-29T06:04:39;1.90;;;1.27;;
17606;SDS011;8922;52.240;20.980;2022-07-29T06:07:06;3.05;;;0.90;;
17606;SDS011;8922;52.240;20.980;2022-07-29T06:09:33;2.65;;;1.15;;
17606;SDS011;8922;52.240;20.980;2022-07-29T06:12:00;1.45;;;1.15;;
17606;SDS011;8922;52.240;20.980;2022-07-29T06:14:27;7.57;;;1.33;;
17606;SDS011;8922;52.240;20.980;2022-07-29T06:16:55;1.55;;;0.60;;
17606;SDS011;8922;52.240;20.980;2022-07-29T06:19:22;3.72;;;1.00;;
17606;SDS011;8922;52.240;20.980;2022-07-29T06:21:49;3.95;;;1.50;;
17606;SDS011;8922;52.240;20.980;2022-07-29T06:24:16;1.30;;;1.10;;
17606;SDS011;8922;52.240;20.980;2022-07-29T06:26:42;1.10;;;0.90;;
17606;SDS011;8922;52.240;20.980;2022-07-29T06:29:09;5.90;;;1.55;;
17606;SDS011;8922;52.240;20.980;2022-07-29T06:31:36;3.72;;;1.10;;
17606;SDS011;8922;52.240;20.980;2022-07-29T06:34:05;1.00;;;0.80;;
17606;SDS011;8922;52.240;20.980;2022-07-29T06:36:34;1.33;;;0.75;;
17606;SDS011;8922;52.240;20.980;2022-07-29T06:39:03;4.38;;;0.75;;
17606;SDS011;8922;52.240;20.980;2022-07-29T06:41:30;12.85;;;3.72;;
17606;SDS011;8922;52.240;20.980;2022-07-29T06:43:57;2.22;;;0.98;;
17606;SDS011;8922;52.240;20.980;2022-07-29T06:46:24;1.27;;;1.17;;
17606;SDS011;8922;52.240;20.980;2022-07-29T06:48:51;1.42;;;1.10;;
17606;SDS011;8922;52.240;20.980;2022-07-29T06:51:19;1.85;;;1.10;;
17606;SDS011;8922;52.240;20.980;2022-07-29T06:53:46;3.35;;;1.00;;
17606;SDS011;8922;52.240;20.980;2022-07-29T06:56:13;4.50;;;1.10;;
17606;SDS011;8922;52.240;20.980;2022-07-29T06:58:40;2.90;;;0.93;;
17606;SDS011;8922;52.240;20.980;2022-07-29T07:01:07;2.78;;;1.00;;
17606;SDS011;8922;52.240;20.980;2022-07-29T07:03:34;1.92;;;0.98;;
17606;SDS011;8922;52.240;20.980;2022-07-29T07:06:01;2.85;;;1.10;;
17606;SDS011;8922;52.240;20.980;2022-07-29T07:08:29;5.60;;;1.33;;
17606;SDS011;8922;52.240;20.980;2022-07-29T07:10:56;2.45;;;1.05;;
17606;SDS011;8922;52.240;20.980;2022-07-29T07:13:23;2.47;;;1.08;;
17606;SDS011;8922;52.240;20.980;2022-07-29T07:15:50;4.70;;;0.80;;
17606;SDS011;8922;52.240;20.980;2022-07-29T07:18:17;3.10;;;1.02;;
17606;SDS011;8922;52.240;20.980;2022-07-29T07:20:44;3.72;;;0.90;;
17606;SDS011;8922;52.240;20.980;2022-07-29T07:23:11;3.40;;;0.90;;
17606;SDS011;8922;52.240;20.980;2022-07-29T07:25:39;1.30;;;0.70;;
17606;SDS011;8922;52.240;20.980;2022-07-29T07:28:07;5.30;;;1.17;;
17606;SDS011;8922;52.240;20.980;2022-07-29T07:30:34;1.23;;;0.80;;
17606;SDS011;8922;52.240;20.980;2022-07-29T07:33:00;2.80;;;1.00;;
17606;SDS011;8922;52.240;20.980;2022-07-29T07:35:28;5.07;;;1.25;;
17606;SDS011;8922;52.240;20.980;2022-07-29T07:37:55;2.67;;;1.00;;
17606;SDS011;8922;52.240;20.980;2022-07-29T07:40:23;2.22;;;0.88;;
17606;SDS011;8922;52.240;20.980;2022-07-29T07:42:51;2.45;;;0.93;;
17606;SDS011;8922;52.240;20.980;2022-07-29T07:45:17;1.75;;;0.85;;
17606;SDS011;8922;52.240;20.980;2022-07-29T07:47:44;2.33;;;1.10;;
17606;SDS011;8922;52.240;20.980;2022-07-29T07:50:12;1.98;;;0.98;;
17606;SDS011;8922;52.240;20.980;2022-07-29T07:52:48;0.52;;;0.52;;
17606;SDS011;8922;52.240;20.980;2022-07-29T07:55:15;3.00;;;0.85;;
17606;SDS011;8922;52.240;20.980;2022-07-29T07:57:43;1.52;;;0.90;;
17606;SDS011;8922;52.240;20.980;2022-07-29T08:00:12;4.82;;;3.08;;
17606;SDS011;8922;52.240;20.980;2022-07-29T08:02:39;2.03;;;0.70;;
17606;SDS011;8922;52.240;20.980;2022-07-29T08:05:08;4.50;;;1.08;;
17606;SDS011;8922;52.240;20.980;2022-07-29T08:07:36;2.80;;;1.08;;
17606;SDS011;8922;52.240;20.980;2022-07-29T08:10:03;5.38;;;1.70;;
17606;SDS011;8922;52.240;20.980;2022-07-29T08:12:31;6.10;;;0.88;;
17606;SDS011;8922;52.240;20.980;2022-07-29T08:14:58;1.67;;;1.10;;
17606;SDS011;8922;52.240;20.980;2022-07-29T08:17:26;1.77;;;0.70;;
17606;SDS011;8922;52.240;20.980;2022-07-29T08:19:53;1.13;;;0.80;;
17606;SDS011;8922;52.240;20.980;2022-07-29T08:22:20;2.88;;;0.70;;
17606;SDS011;8922;52.240;20.980;2022-07-29T08:24:46;3.15;;;0.90;;
17606;SDS011;8922;52.240;20.980;2022-07-29T08:27:19;2.83;;;1.00;;
17606;SDS011;8922;52.240;20.980;2022-07-29T08:29:46;4.38;;;0.93;;
17606;SDS011;8922;52.240;20.980;2022-07-29T08:32:14;1.08;;;0.88;;
17606;SDS011;8922;52.240;20.980;2022-07-29T08:34:42;1.88;;;0.85;;
17606;SDS011;8922;52.240;20.980;2022-07-29T08:37:11;1.88;;;0.90;;
17606;SDS011;8922;52.240;20.980;2022-07-29T08:39:38;2.70;;;0.90;;
17606;SDS011;8922;52.240;20.980;2022-07-29T08:42:05;3.45;;;1.13;;
17606;SDS011;8922;52.240;20.980;2022-07-29T08:44:37;1.48;;;1.05;;
17606;SDS011;8922;52.240;20.980;2022-07-29T08:47:04;2.88;;;0.90;;
17606;SDS011;8922;52.240;20.980;2022-07-29T08:49:32;2.90;;;1.00;;
17606;SDS011;8922;52.240;20.980;2022-07-29T08:52:02;0.73;;;0.50;;
17606;SDS011;8922;52.240;20.980;2022-07-29T08:54:29;2.10;;;0.85;;
17606;SDS011;8922;52.240;20.980;2022-07-29T08:56:56;2.17;;;0.88;;
17606;SDS011;8922;52.240;20.980;2022-07-29T08:59:24;1.25;;;0.80;;
17606;SDS011;8922;52.240;20.980;2022-07-29T09:01:53;5.80;;;1.20;;
17606;SDS011;8922;52.240;20.980;2022-07-29T09:04:20;4.68;;;1.10;;
17606;SDS011;8922;52.240;20.980;2022-07-29T09:06:51;3.17;;;0.88;;
17606;SDS011;8922;52.240;20.980;2022-07-29T09:09:21;4.55;;;1.00;;
17606;SDS011;8922;52.240;20.980;2022-07-29T09:11:48;2.10;;;0.85;;
17606;SDS011;8922;52.240;20.980;2022-07-29T09:14:18;1.52;;;1.00;;
17606;SDS011;8922;52.240;20.980;2022-07-29T09:16:52;1.55;;;0.80;;
17606;SDS011;8922;52.240;20.980;2022-07-29T09:19:21;2.95;;;1.00;;
17606;SDS011;8922;52.240;20.980;2022-07-29T09:21:49;1.60;;;0.82;;
17606;SDS011;8922;52.240;20.980;2022-07-29T09:24:27;2.30;;;0.82;;
17606;SDS011;8922;52.240;20.980;2022-07-29T09:27:07;3.92;;;0.80;;
17606;SDS011;8922;52.240;20.980;2022-07-29T09:29:44;1.88;;;0.90;;
17606;SDS011;8922;52.240;20.980;2022-07-29T09:32:11;1.48;;;0.75;;
17606;SDS011;8922;52.240;20.980;2022-07-29T09:34:39;2.10;;;0.70;;
17606;SDS011;8922;52.240;20.980;2022-07-29T09:37:05;1.95;;;0.98;;
17606;SDS011;8922;52.240;20.980;2022-07-29T09:39:34;2.60;;;0.70;;
17606;SDS011;8922;52.240;20.980;2022-07-29T09:42:03;2.80;;;1.40;;
17606;SDS011;8922;52.240;20.980;2022-07-29T09:44:41;4.88;;;0.90;;
17606;SDS011;8922;52.240;20.980;2022-07-29T09:47:09;2.58;;;0.80;;
17606;SDS011;8922;52.240;20.980;2022-07-29T09:49:49;1.52;;;0.70;;
17606;SDS011;8922;52.240;20.980;2022-07-29T09:52:19;2.72;;;0.98;;
17606;SDS011;8922;52.240;20.980;2022-07-29T09:54:47;3.10;;;0.98;;
17606;SDS011;8922;52.240;20.980;2022-07-29T09:57:21;1.48;;;1.00;;
17606;SDS011;8922;52.240;20.980;2022-07-29T09:59:58;2.70;;;0.70;;
17606;SDS011;8922;52.240;20.980;2022-07-29T10:02:30;2.80;;;0.80;;
17606;SDS011;8922;52.240;20.980;2022-07-29T10:04:58;2.83;;;0.90;;
17606;SDS011;8922;52.240;20.980;2022-07-29T10:07:25;2.20;;;0.50;;
17606;SDS011;8922;52.240;20.980;2022-07-29T10:09:54;2.25;;;0.70;;
17606;SDS011;8922;52.240;20.980;2022-07-29T10:12:22;8.02;;;1.50;;
17606;SDS011;8922;52.240;20.980;2022-07-29T10:14:50;1.88;;;0.63;;
17606;SDS011;8922;52.240;20.980;2022-07-29T10:17:17;2.03;;;0.63;;
17606;SDS011;8922;52.240;20.980;2022-07-29T10:19:44;1.08;;;0.80;;
17606;SDS011;8922;52.240;20.980;2022-07-29T10:22:12;1.52;;;0.82;;
17606;SDS011;8922;52.240;20.980;2022-07-29T10:24:38;2.63;;;0.88;;
17606;SDS011;8922;52.240;20.980;2022-07-29T10:27:07;1.75;;;0.70;;
17606;SDS011;8922;52.240;20.980;2022-07-29T10:29:34;1.35;;;0.63;;
17606;SDS011;8922;52.240;20.980;2022-07-29T10:32:20;0.80;;;0.60;;
17606;SDS011;8922;52.240;20.980;2022-07-29T10:35:07;3.05;;;0.50;;
17606;SDS011;8922;52.240;20.980;2022-07-29T10:38:02;1.77;;;0.70;;
17606;SDS011;8922;52.240;20.980;2022-07-29T10:40:39;2.00;;;0.65;;
17606;SDS011;8922;52.240;20.980;2022-07-29T10:43:32;1.77;;;0.77;;
17606;SDS011;8922;52.240;20.980;2022-07-29T10:46:03;3.47;;;0.93;;
17606;SDS011;8922;52.240;20.980;2022-07-29T10:48:30;1.42;;;0.73;;
17606;SDS011;8922;52.240;20.980;2022-07-29T10:50:57;0.68;;;0.50;;
17606;SDS011;8922;52.240;20.980;2022-07-29T10:53:47;1.15;;;0.60;;
17606;SDS011;8922;52.240;20.980;2022-07-29T10:56:24;2.67;;;0.60;;
17606;SDS011;8922;52.240;20.980;2022-07-29T11:01:53;4.03;;;0.88;;
17606;SDS011;8922;52.240;20.980;2022-07-29T11:07:24;2.13;;;0.70;;
17606;SDS011;8922;52.240;20.980;2022-07-29T11:12:50;4.70;;;0.90;;
17606;SDS011;8922;52.240;20.980;2022-07-29T11:15:19;1.20;;;0.70;;
17606;SDS011;8922;52.240;20.980;2022-07-29T11:18:03;1.40;;;1.15;;
17606;SDS011;8922;52.240;20.980;2022-07-29T11:20:32;1.65;;;1.00;;
17606;SDS011;8922;52.240;20.980;2022-07-29T11:23:25;2.40;;;0.60;;
17606;SDS011;8922;52.240;20.980;2022-07-29T11:28:52;0.85;;;0.70;;
17606;SDS011;8922;52.240;20.980;2022-07-29T11:31:33;1.45;;;0.80;;
17606;SDS011;8922;52.240;20.980;2022-07-29T11:40:14;1.27;;;0.70;;
17606;SDS011;8922;52.240;20.980;2022-07-29T11:42:45;3.15;;;0.77;;
17606;SDS011;8922;52.240;20.980;2022-07-29T11:45:13;2.85;;;0.90;;
17606;SDS011;8922;52.240;20.980;2022-07-29T11:47:48;1.27;;;0.75;;
17606;SDS011;8922;52.240;20.980;2022-07-29T11:50:29;0.77;;;0.60;;
17606;SDS011;8922;52.240;20.980;2022-07-29T11:52:58;10.00;;;1.15;;
17606;SDS011;8922;52.240;20.980;2022-07-29T11:55:26;1.10;;;0.57;;
17606;SDS011;8922;52.240;20.980;2022-07-29T11:57:54;3.33;;;0.75;;
17606;SDS011;8922;52.240;20.980;2022-07-29T12:00:24;2.25;;;0.70;;
17606;SDS011;8922;52.240;20.980;2022-07-29T12:02:55;3.25;;;0.80;;
17606;SDS011;8922;52.240;20.980;2022-07-29T12:05:30;0.77;;;0.50;;
17606;SDS011;8922;52.240;20.980;2022-07-29T12:08:04;2.63;;;0.70;;
17606;SDS011;8922;52.240;20.980;2022-07-29T12:10:32;2.42;;;0.60;;
17606;SDS011;8922;52.240;20.980;2022-07-29T12:12:59;1.13;;;0.50;;
17606;SDS011;8922;52.240;20.980;2022-07-29T12:15:26;0.50;;;0.50;;
17606;SDS011;8922;52.240;20.980;2022-07-29T12:17:52;1.30;;;0.60;;
17606;SDS011;8922;52.240;20.980;2022-07-29T12:20:24;2.75;;;0.80;;
17606;SDS011;8922;52.240;20.980;2022-07-29T12:22:52;1.00;;;0.60;;
17606;SDS011;8922;52.240;20.980;2022-07-29T12:25:20;3.10;;;0.70;;
17606;SDS011;8922;52.240;20.980;2022-07-29T12:27:56;1.95;;;0.47;;
17606;SDS011;8922;52.240;20.980;2022-07-29T12:30:34;1.33;;;0.70;;
17606;SDS011;8922;52.240;20.980;2022-07-29T12:33:14;1.75;;;0.70;;
17606;SDS011;8922;52.240;20.980;2022-07-29T12:35:44;1.05;;;0.68;;
17606;SDS011;8922;52.240;20.980;2022-07-29T12:38:12;1.50;;;0.50;;
17606;SDS011;8922;52.240;20.980;2022-07-29T12:40:39;1.75;;;0.68;;
17606;SDS011;8922;52.240;20.980;2022-07-29T12:43:10;2.40;;;0.80;;
17606;SDS011;8922;52.240;20.980;2022-07-29T12:45:39;0.60;;;0.60;;
17606;SDS011;8922;52.240;20.980;2022-07-29T12:48:08;5.47;;;1.40;;
17606;SDS011;8922;52.240;20.980;2022-07-29T12:50:37;1.52;;;0.65;;
17606;SDS011;8922;52.240;20.980;2022-07-29T12:53:18;1.17;;;0.68;;
17606;SDS011;8922;52.240;20.980;2022-07-29T12:55:46;2.13;;;0.80;;
17606;SDS011;8922;52.240;20.980;2022-07-29T12:58:25;3.08;;;0.55;;
17606;SDS011;8922;52.240;20.980;2022-07-29T13:01:04;2.30;;;0.75;;
17606;SDS011;8922;52.240;20.980;2022-07-29T13:03:43;0.95;;;0.82;;
17606;SDS011;8922;52.240;20.980;2022-07-29T13:06:31;1.38;;;0.60;;
17606;SDS011;8922;52.240;20.980;2022-07-29T13:09:01;2.05;;;0.88;;
17606;SDS011;8922;52.240;20.980;2022-07-29T13:11:32;0.75;;;0.60;;
17606;SDS011;8922;52.240;20.980;2022-07-29T13:14:00;3.22;;;0.90;;
17606;SDS011;8922;52.240;20.980;2022-07-29T13:16:27;7.40;;;0.70;;
17606;SDS011;8922;52.240;20.980;2022-07-29T13:19:09;2.35;;;0.65;;
17606;SDS011;8922;52.240;20.980;2022-07-29T13:21:38;4.93;;;0.80;;
17606;SDS011;8922;52.240;20.980;2022-07-29T13:24:06;4.80;;;0.60;;
17606;SDS011;8922;52.240;20.980;2022-07-29T13:26:34;1.70;;;0.60;;
17606;SDS011;8922;52.240;20.980;2022-07-29T13:29:01;1.38;;;0.70;;
17606;SDS011;8922;52.240;20.980;2022-07-29T13:31:28;3.00;;;0.75;;
17606;SDS011;8922;52.240;20.980;2022-07-29T13:33:56;2.63;;;0.75;;
17606;SDS011;8922;52.240;20.980;2022-07-29T13:36:23;2.63;;;0.82;;
17606;SDS011;8922;52.240;20.980;2022-07-29T13:38:51;0.85;;;0.52;;
17606;SDS011;8922;52.240;20.980;2022-07-29T13:41:18;1.73;;;0.68;;
17606;SDS011;8922;52.240;20.980;2022-07-29T13:43:45;2.15;;;0.70;;
17606;SDS011;8922;52.240;20.980;2022-07-29T13:46:11;1.42;;;0.75;;
17606;SDS011;8922;52.240;20.980;2022-07-29T13:48:38;1.67;;;0.98;;
17606;SDS011;8922;52.240;20.980;2022-07-29T13:51:05;4.50;;;0.63;;
17606;SDS011;8922;52.240;20.980;2022-07-29T13:53:32;2.53;;;0.80;;
17606;SDS011;8922;52.240;20.980;2022-07-29T13:56:00;4.22;;;0.88;;
17606;SDS011;8922;52.240;20.980;2022-07-29T13:58:26;1.92;;;0.80;;
17606;SDS011;8922;52.240;20.980;2022-07-29T14:00:53;1.85;;;0.60;;
17606;SDS011;8922;52.240;20.980;2022-07-29T14:03:21;1.42;;;0.65;;
17606;SDS011;8922;52.240;20.980;2022-07-29T14:05:49;5.70;;;1.10;;
17606;SDS011;8922;52.240;20.980;2022-07-29T14:08:16;1.88;;;0.90;;
17606;SDS011;8922;52.240;20.980;2022-07-29T14:10:43;3.40;;;0.75;;
17606;SDS011;8922;52.240;20.980;2022-07-29T14:13:11;2.60;;;0.90;;
17606;SDS011;8922;52.240;20.980;2022-07-29T14:15:38;0.80;;;0.55;;
17606;SDS011;8922;52.240;20.980;2022-07-29T14:18:04;3.30;;;0.80;;
17606;SDS011;8922;52.240;20.980;2022-07-29T14:20:31;2.40;;;0.85;;
17606;SDS011;8922;52.240;20.980;2022-07-29T14:22:58;1.42;;;0.43;;
17606;SDS011;8922;52.240;20.980;2022-07-29T14:25:25;1.23;;;0.88;;
17606;SDS011;8922;52.240;20.980;2022-07-29T14:27:51;2.83;;;0.90;;
17606;SDS011;8922;52.240;20.980;2022-07-29T14:30:20;2.35;;;0.70;;
17606;SDS011;8922;52.240;20.980;2022-07-29T14:32:47;1.80;;;0.63;;
17606;SDS011;8922;52.240;20.980;2022-07-29T14:35:14;1.58;;;0.70;;
17606;SDS011;8922;52.240;20.980;2022-07-29T14:37:41;3.15;;;0.80;;
17606;SDS011;8922;52.240;20.980;2022-07-29T14:40:09;0.93;;;0.63;;
17606;SDS011;8922;52.240;20.980;2022-07-29T14:42:36;4.50;;;0.85;;
17606;SDS011;8922;52.240;20.980;2022-07-29T14:45:04;0.80;;;0.73;;
17606;SDS011;8922;52.240;20.980;2022-07-29T14:47:33;0.93;;;0.73;;
17606;SDS011;8922;52.240;20.980;2022-07-29T14:50:00;0.70;;;0.60;;
17606;SDS011;8922;52.240;20.980;2022-07-29T14:52:27;0.77;;;0.52;;
17606;SDS011;8922;52.240;20.980;2022-07-29T14:54:54;0.75;;;0.65;;
17606;SDS011;8922;52.240;20.980;2022-07-29T14:57:20;1.83;;;0.90;;
17606;SDS011;8922;52.240;20.980;2022-07-29T14:59:47;2.20;;;0.77;;
17606;SDS011;8922;52.240;20.980;2022-07-29T15:02:14;2.45;;;1.15;;
17606;SDS011;8922;52.240;20.980;2022-07-29T15:04:42;2.13;;;0.90;;
17606;SDS011;8922;52.240;20.980;2022-07-29T15:07:10;2.40;;;0.88;;
17606;SDS011;8922;52.240;20.980;2022-07-29T15:09:37;1.52;;;0.82;;
17606;SDS011;8922;52.240;20.980;2022-07-29T15:12:04;2.83;;;1.02;;
17606;SDS011;8922;52.240;20.980;2022-07-29T15:14:31;3.03;;;0.70;;
17606;SDS011;8922;52.240;20.980;2022-07-29T15:16:58;1.02;;;0.60;;